sensor_id;sensor_type;location;lat;lon;timestamp;P1;durP1;ratioP1;P2;durP2;ratioP2
68910;SDS011;55953;51.650;-0.522;2023-03-12T00:01:19;30.40;;;15.20;;
68910;SDS011;55953;51.650;-0.522;2023-03-12T00:03:50;28.00;;;14.90;;
68910;SDS011;55953;51.650;-0.522;2023-03-12T00:06:19;29.90;;;14.90;;
68910;SDS011;55953;51.650;-0.522;2023-03-12T00:08:48;28.50;;;14.30;;
68910;SDS011;55953;51.650;-0.522;2023-03-12T00:11:17;30.60;;;14.80;;
68910;SDS011;55953;51.650;-0.522;2023-03-12T00:13:52;31.00;;;15.30;;
68910;SDS011;55953;51.650;-0.522;2023-03-12T00:16:23;30.90;;;14.80;;
68910;SDS011;55953;51.650;-0.522;2023-03-12T00:18:53;29.00;;;14.60;;
68910;SDS011;55953;51.650;-0.522;2023-03-12T00:21:22;31.50;;;14.60;;
68910;SDS011;55953;51.650;-0.522;2023-03-12T00:23:51;27.00;;;13.20;;
68910;SDS011;55953;51.650;-0.522;2023-03-12T00:26:20;32.50;;;14.60;;
68910;SDS011;55953;51.650;-0.522;2023-03-12T00:28:48;30.10;;;14.20;;
68910;SDS011;55953;51.650;-0.522;2023-03-12T00:31:23;31.00;;;14.40;;
68910;SDS011;55953;51.650;-0.522;2023-03-12T00:33:56;28.30;;;13.50;;
68910;SDS011;55953;51.650;-0.522;2023-03-12T00:36:27;30.80;;;15.20;;
68910;SDS011;55953;51.650;-0.522;2023-03-12T00:38:58;30.80;;;13.90;;
68910;SDS011;55953;51.650;-0.522;2023-03-12T00:41:27;29.50;;;13.60;;
68910;SDS011;55953;51.650;-0.522;2023-03-12T00:43:57;30.60;;;14.20;;
68910;SDS011;55953;51.650;-0.522;2023-03-12T00:46:25;29.80;;;14.30;;
68910;SDS011;55953;51.650;-0.522;2023-03-12T00:48:53;30.70;;;14.20;;
68910;SDS011;55953;51.650;-0.522;2023-03-12T00:51:21;31.30;;;13.80;;
68910;SDS011;55953;51.650;-0.522;2023-03-12T00:53:49;30.20;;;14.20;;
68910;SDS011;55953;51.650;-0.522;2023-03-12T00:56:17;28.30;;;13.90;;
68910;SDS011;55953;51.650;-0.522;2023-03-12T00:58:45;27.70;;;13.20;;
68910;SDS011;55953;51.650;-0.522;2023-03-12T01:01:13;28.30;;;12.90;;
68910;SDS011;55953;51.650;-0.522;2023-03-12T01:03:42;30.30;;;13.50;;
68910;SDS011;55953;51.650;-0.522;2023-03-12T01:06:10;27.70;;;12.80;;
68910;SDS011;55953;51.650;-0.522;2023-03-12T01:08:38;28.50;;;12.60;;
68910;SDS011;55953;51.650;-0.522;2023-03-12T01:11:06;30.40;;;12.90;;
68910;SDS011;55953;51.650;-0.522;2023-03-12T01:13:34;28.50;;;12.30;;
68910;SDS011;55953;51.650;-0.522;2023-03-12T01:16:02;25.60;;;11.20;;
68910;SDS011;55953;51.650;-0.522;2023-03-12T01:18:30;28.00;;;11.60;;
68910;SDS011;55953;51.650;-0.522;2023-03-12T01:20:58;25.90;;;10.60;;
68910;SDS011;55953;51.650;-0.522;2023-03-12T01:23:26;23.40;;;10.50;;
68910;SDS011;55953;51.650;-0.522;2023-03-12T01:25:54;21.50;;;9.50;;
68910;SDS011;55953;51.650;-0.522;2023-03-12T01:28:23;24.50;;;9.90;;
68910;SDS011;55953;51.650;-0.522;2023-03-12T01:30:52;26.00;;;10.90;;
68910;SDS011;55953;51.650;-0.522;2023-03-12T01:33:20;25.40;;;10.00;;
68910;SDS011;55953;51.650;-0.522;2023-03-12T01:35:49;21.50;;;9.70;;
68910;SDS011;55953;51.650;-0.522;2023-03-12T01:38:17;24.90;;;9.90;;
68910;SDS011;55953;51.650;-0.522;2023-03-12T01:40:47;22.20;;;9.70;;
68910;SDS011;55953;51.650;-0.522;2023-03-12T01:43:35;22.20;;;9.40;;
68910;SDS011;55953;51.650;-0.522;2023-03-12T01:51:37;27.90;;;10.40;;
68910;SDS011;55953;51.650;-0.522;2023-03-12T01:57:30;25.80;;;10.20;;
68910;SDS011;55953;51.650;-0.522;2023-03-12T02:00:07;24.30;;;10.10;;
68910;SDS011;55953;51.650;-0.522;2023-03-12T02:02:41;24.30;;;10.40;;
68910;SDS011;55953;51.650;-0.522;2023-03-12T02:05:29;27.10;;;9.90;;
68910;SDS011;55953;51.650;-0.522;2023-03-12T02:08:02;23.60;;;9.60;;
68910;SDS011;55953;51.650;-0.522;2023-03-12T02:10:30;24.20;;;9.60;;
68910;SDS011;55953;51.650;-0.522;2023-03-12T02:12:58;22.30;;;9.50;;
68910;SDS011;55953;51.650;-0.522;2023-03-12T02:15:26;25.10;;;8.90;;
68910;SDS011;55953;51.650;-0.522;2023-03-12T02:17:54;21.80;;;8.90;;
68910;SDS011;55953;51.650;-0.522;2023-03-12T02:23:31;24.30;;;8.90;;
68910;SDS011;55953;51.650;-0.522;2023-03-12T02:26:06;22.20;;;9.20;;
68910;SDS011;55953;51.650;-0.522;2023-03-12T02:28:36;22.70;;;8.70;;
68910;SDS011;55953;51.650;-0.522;2023-03-12T02:31:14;21.50;;;8.30;;
68910;SDS011;55953;51.650;-0.522;2023-03-12T02:33:46;22.70;;;8.40;;
68910;SDS011;55953;51.650;-0.522;2023-03-12T02:36:14;20.90;;;8.90;;
68910;SDS011;55953;51.650;-0.522;2023-03-12T02:41:23;19.90;;;7.80;;
68910;SDS011;55953;51.650;-0.522;2023-03-12T02:46:44;20.70;;;7.30;;
68910;SDS011;55953;51.650;-0.522;2023-03-12T02:49:15;25.60;;;8.00;;
68910;SDS011;55953;51.650;-0.522;2023-03-12T02:51:46;17.80;;;7.00;;
68910;SDS011;55953;51.650;-0.522;2023-03-12T02:54:16;25.00;;;8.10;;
68910;SDS011;55953;51.650;-0.522;2023-03-12T02:56:46;20.30;;;8.20;;
68910;SDS011;55953;51.650;-0.522;2023-03-12T02:59:15;25.20;;;7.30;;
68910;SDS011;55953;51.650;-0.522;2023-03-12T03:01:52;20.10;;;8.10;;
68910;SDS011;55953;51.650;-0.522;2023-03-12T03:04:22;24.80;;;8.40;;
68910;SDS011;55953;51.650;-0.522;2023-03-12T03:06:51;24.20;;;7.70;;
68910;SDS011;55953;51.650;-0.522;2023-03-12T03:09:19;22.60;;;7.60;;
68910;SDS011;55953;51.650;-0.522;2023-03-12T03:11:49;24.70;;;7.30;;
68910;SDS011;55953;51.650;-0.522;2023-03-12T03:14:17;23.30;;;6.90;;
68910;SDS011;55953;51.650;-0.522;2023-03-12T03:16:47;22.50;;;7.90;;
68910;SDS011;55953;51.650;-0.522;2023-03-12T03:19:16;20.70;;;7.20;;
68910;SDS011;55953;51.650;-0.522;2023-03-12T03:21:44;21.20;;;7.40;;
68910;SDS011;55953;51.650;-0.522;2023-03-12T03:24:12;23.00;;;7.90;;
68910;SDS011;55953;51.650;-0.522;2023-03-12T03:26:40;22.30;;;7.00;;
68910;SDS011;55953;51.650;-0.522;2023-03-12T03:29:08;24.40;;;8.00;;
68910;SDS011;55953;51.650;-0.522;2023-03-12T03:31:36;24.70;;;7.10;;
68910;SDS011;55953;51.650;-0.522;2023-03-12T03:34:04;20.80;;;6.90;;
68910;SDS011;55953;51.650;-0.522;2023-03-12T03:36:32;18.30;;;6.60;;
68910;SDS011;55953;51.650;-0.522;2023-03-12T03:39:04;24.50;;;6.70;;
68910;SDS011;55953;51.650;-0.522;2023-03-12T03:41:32;18.40;;;6.40;;
68910;SDS011;55953;51.650;-0.522;2023-03-12T03:44:01;23.80;;;6.00;;
68910;SDS011;55953;51.650;-0.522;2023-03-12T03:46:29;20.80;;;5.80;;
68910;SDS011;55953;51.650;-0.522;2023-03-12T03:49:02;19.90;;;5.60;;
68910;SDS011;55953;51.650;-0.522;2023-03-12T03:51:30;20.30;;;5.70;;
68910;SDS011;55953;51.650;-0.522;2023-03-12T03:54:03;22.70;;;5.80;;
68910;SDS011;55953;51.650;-0.522;2023-03-12T03:56:31;27.70;;;6.50;;
68910;SDS011;55953;51.650;-0.522;2023-03-12T03:58:59;28.50;;;5.40;;
68910;SDS011;55953;51.650;-0.522;2023-03-12T04:01:29;23.20;;;6.20;;
68910;SDS011;55953;51.650;-0.522;2023-03-12T04:03:58;30.50;;;6.50;;
68910;SDS011;55953;51.650;-0.522;2023-03-12T04:06:27;19.10;;;4.70;;
68910;SDS011;55953;51.650;-0.522;2023-03-12T04:08:57;23.00;;;4.50;;
68910;SDS011;55953;51.650;-0.522;2023-03-12T04:11:26;23.10;;;5.00;;
68910;SDS011;55953;51.650;-0.522;2023-03-12T04:13:55;31.40;;;4.90;;
68910;SDS011;55953;51.650;-0.522;2023-03-12T04:16:25;34.10;;;5.90;;
68910;SDS011;55953;51.650;-0.522;2023-03-12T04:18:53;27.10;;;4.90;;
68910;SDS011;55953;51.650;-0.522;2023-03-12T04:21:22;19.80;;;4.80;;
68910;SDS011;55953;51.650;-0.522;2023-03-12T04:23:50;23.00;;;4.20;;
68910;SDS011;55953;51.650;-0.522;2023-03-12T04:26:21;23.50;;;5.30;;
68910;SDS011;55953;51.650;-0.522;2023-03-12T04:28:48;26.10;;;4.90;;
68910;SDS011;55953;51.650;-0.522;2023-03-12T04:31:16;31.30;;;5.40;;
68910;SDS011;55953;51.650;-0.522;2023-03-12T04:33:49;30.40;;;4.80;;
68910;SDS011;55953;51.650;-0.522;2023-03-12T04:36:18;25.00;;;4.50;;
68910;SDS011;55953;51.650;-0.522;2023-03-12T04:38:48;31.10;;;4.80;;
68910;SDS011;55953;51.650;-0.522;2023-03-12T04:41:17;35.70;;;5.10;;
68910;SDS011;55953;51.650;-0.522;2023-03-12T04:46:17;25.00;;;4.50;;
68910;SDS011;55953;51.650;-0.522;2023-03-12T04:48:45;29.60;;;5.50;;
68910;SDS011;55953;51.650;-0.522;2023-03-12T04:51:13;25.70;;;5.00;;
68910;SDS011;55953;51.650;-0.522;2023-03-12T04:53:41;29.10;;;4.80;;
68910;SDS011;55953;51.650;-0.522;2023-03-12T04:56:11;25.40;;;4.20;;
68910;SDS011;55953;51.650;-0.522;2023-03-12T04:58:39;28.20;;;4.10;;
68910;SDS011;55953;51.650;-0.522;2023-03-12T05:01:27;27.30;;;4.80;;
68910;SDS011;55953;51.650;-0.522;2023-03-12T05:03:56;28.80;;;5.10;;
68910;SDS011;55953;51.650;-0.522;2023-03-12T05:06:25;27.00;;;3.60;;
68910;SDS011;55953;51.650;-0.522;2023-03-12T05:08:55;26.40;;;4.80;;
68910;SDS011;55953;51.650;-0.522;2023-03-12T05:11:24;29.80;;;4.20;;
68910;SDS011;55953;51.650;-0.522;2023-03-12T05:13:52;27.80;;;4.50;;
68910;SDS011;55953;51.650;-0.522;2023-03-12T05:16:20;33.40;;;4.90;;
68910;SDS011;55953;51.650;-0.522;2023-03-12T05:18:48;27.20;;;5.00;;
68910;SDS011;55953;51.650;-0.522;2023-03-12T05:21:18;39.00;;;5.20;;
68910;SDS011;55953;51.650;-0.522;2023-03-12T05:23:48;25.90;;;4.20;;
68910;SDS011;55953;51.650;-0.522;2023-03-12T05:28:46;36.90;;;5.50;;
68910;SDS011;55953;51.650;-0.522;2023-03-12T05:31:14;38.20;;;5.20;;
68910;SDS011;55953;51.650;-0.522;2023-03-12T05:33:44;37.40;;;5.90;;
68910;SDS011;55953;51.650;-0.522;2023-03-12T05:36:14;33.20;;;4.80;;
68910;SDS011;55953;51.650;-0.522;2023-03-12T05:38:46;31.30;;;5.50;;
68910;SDS011;55953;51.650;-0.522;2023-03-12T05:41:23;34.30;;;4.80;;
68910;SDS011;55953;51.650;-0.522;2023-03-12T05:43:56;30.60;;;5.00;;
68910;SDS011;55953;51.650;-0.522;2023-03-12T05:46:26;34.90;;;6.10;;
68910;SDS011;55953;51.650;-0.522;2023-03-12T05:48:54;28.60;;;4.60;;
68910;SDS011;55953;51.650;-0.522;2023-03-12T05:51:22;26.40;;;4.70;;
68910;SDS011;55953;51.650;-0.522;2023-03-12T05:53:51;31.30;;;5.30;;
68910;SDS011;55953;51.650;-0.522;2023-03-12T05:56:19;31.90;;;4.70;;
68910;SDS011;55953;51.650;-0.522;2023-03-12T05:58:47;27.80;;;4.20;;
68910;SDS011;55953;51.650;-0.522;2023-03-12T06:01:20;33.90;;;5.00;;
68910;SDS011;55953;51.650;-0.522;2023-03-12T06:03:53;30.40;;;4.90;;
68910;SDS011;55953;51.650;-0.522;2023-03-12T06:06:23;32.00;;;5.30;;
68910;SDS011;55953;51.650;-0.522;2023-03-12T06:08:52;24.30;;;5.50;;
68910;SDS011;55953;51.650;-0.522;2023-03-12T06:11:20;33.80;;;5.40;;
68910;SDS011;55953;51.650;-0.522;2023-03-12T06:13:48;30.80;;;4.80;;
68910;SDS011;55953;51.650;-0.522;2023-03-12T06:16:21;30.10;;;5.30;;
68910;SDS011;55953;51.650;-0.522;2023-03-12T06:19:01;37.90;;;4.50;;
68910;SDS011;55953;51.650;-0.522;2023-03-12T06:21:32;27.00;;;4.50;;
68910;SDS011;55953;51.650;-0.522;2023-03-12T06:24:03;33.30;;;4.90;;
68910;SDS011;55953;51.650;-0.522;2023-03-12T06:26:42;31.90;;;4.80;;
68910;SDS011;55953;51.650;-0.522;2023-03-12T06:29:10;31.90;;;5.40;;
68910;SDS011;55953;51.650;-0.522;2023-03-12T06:31:38;26.40;;;4.40;;
68910;SDS011;55953;51.650;-0.522;2023-03-12T06:34:08;22.90;;;4.20;;
68910;SDS011;55953;51.650;-0.522;2023-03-12T06:36:36;29.60;;;6.50;;
68910;SDS011;55953;51.650;-0.522;2023-03-12T06:39:05;27.10;;;5.30;;
68910;SDS011;55953;51.650;-0.522;2023-03-12T06:41:33;31.20;;;5.10;;
68910;SDS011;55953;51.650;-0.522;2023-03-12T06:44:01;30.80;;;5.60;;
68910;SDS011;55953;51.650;-0.522;2023-03-12T06:49:00;31.90;;;4.80;;
68910;SDS011;55953;51.650;-0.522;2023-03-12T06:51:28;24.70;;;4.10;;
68910;SDS011;55953;51.650;-0.522;2023-03-12T06:53:56;28.00;;;4.90;;
68910;SDS011;55953;51.650;-0.522;2023-03-12T06:56:24;29.40;;;4.20;;
68910;SDS011;55953;51.650;-0.522;2023-03-12T06:58:52;30.10;;;4.80;;
68910;SDS011;55953;51.650;-0.522;2023-03-12T07:01:20;32.50;;;5.00;;
68910;SDS011;55953;51.650;-0.522;2023-03-12T07:03:49;29.70;;;5.30;;
68910;SDS011;55953;51.650;-0.522;2023-03-12T07:06:19;34.80;;;4.70;;
68910;SDS011;55953;51.650;-0.522;2023-03-12T07:08:49;27.00;;;4.20;;
68910;SDS011;55953;51.650;-0.522;2023-03-12T07:11:17;26.10;;;4.60;;
68910;SDS011;55953;51.650;-0.522;2023-03-12T07:13:45;31.10;;;4.90;;
68910;SDS011;55953;51.650;-0.522;2023-03-12T07:16:14;33.80;;;4.50;;
68910;SDS011;55953;51.650;-0.522;2023-03-12T07:18:42;29.60;;;4.70;;
68910;SDS011;55953;51.650;-0.522;2023-03-12T07:21:10;31.50;;;5.00;;
68910;SDS011;55953;51.650;-0.522;2023-03-12T07:23:37;25.00;;;4.20;;
68910;SDS011;55953;51.650;-0.522;2023-03-12T07:26:06;27.50;;;4.80;;
68910;SDS011;55953;51.650;-0.522;2023-03-12T07:28:34;25.60;;;4.90;;
68910;SDS011;55953;51.650;-0.522;2023-03-12T07:31:03;29.40;;;4.30;;
68910;SDS011;55953;51.650;-0.522;2023-03-12T07:33:32;26.30;;;4.80;;
68910;SDS011;55953;51.650;-0.522;2023-03-12T07:36:01;28.00;;;4.80;;
68910;SDS011;55953;51.650;-0.522;2023-03-12T07:38:30;32.40;;;6.10;;
68910;SDS011;55953;51.650;-0.522;2023-03-12T07:40:58;31.50;;;5.10;;
68910;SDS011;55953;51.650;-0.522;2023-03-12T07:43:27;28.30;;;4.90;;
68910;SDS011;55953;51.650;-0.522;2023-03-12T07:45:55;26.20;;;4.50;;
68910;SDS011;55953;51.650;-0.522;2023-03-12T07:48:23;26.00;;;4.40;;
68910;SDS011;55953;51.650;-0.522;2023-03-12T07:50:51;31.00;;;5.10;;
68910;SDS011;55953;51.650;-0.522;2023-03-12T07:53:19;36.50;;;5.00;;
68910;SDS011;55953;51.650;-0.522;2023-03-12T07:55:47;30.00;;;4.80;;
68910;SDS011;55953;51.650;-0.522;2023-03-12T07:58:16;28.30;;;4.50;;
68910;SDS011;55953;51.650;-0.522;2023-03-12T08:00:44;27.30;;;4.20;;
68910;SDS011;55953;51.650;-0.522;2023-03-12T08:03:13;28.80;;;4.50;;
68910;SDS011;55953;51.650;-0.522;2023-03-12T08:05:41;29.90;;;4.20;;
68910;SDS011;55953;51.650;-0.522;2023-03-12T08:08:09;29.70;;;3.80;;
68910;SDS011;55953;51.650;-0.522;2023-03-12T08:10:37;28.30;;;4.30;;
68910;SDS011;55953;51.650;-0.522;2023-03-12T08:13:05;25.20;;;4.50;;
68910;SDS011;55953;51.650;-0.522;2023-03-12T08:15:33;26.70;;;5.00;;
68910;SDS011;55953;51.650;-0.522;2023-03-12T08:18:01;24.30;;;3.90;;
68910;SDS011;55953;51.650;-0.522;2023-03-12T08:20:29;24.20;;;4.30;;
68910;SDS011;55953;51.650;-0.522;2023-03-12T08:22:57;27.50;;;3.80;;
68910;SDS011;55953;51.650;-0.522;2023-03-12T08:25:25;29.10;;;4.00;;
68910;SDS011;55953;51.650;-0.522;2023-03-12T08:27:53;24.30;;;4.40;;
68910;SDS011;55953;51.650;-0.522;2023-03-12T08:30:21;25.80;;;4.40;;
68910;SDS011;55953;51.650;-0.522;2023-03-12T08:32:49;23.00;;;3.60;;
68910;SDS011;55953;51.650;-0.522;2023-03-12T08:35:17;24.40;;;4.00;;
68910;SDS011;55953;51.650;-0.522;2023-03-12T08:37:45;23.10;;;3.70;;
68910;SDS011;55953;51.650;-0.522;2023-03-12T08:40:13;23.80;;;3.50;;
68910;SDS011;55953;51.650;-0.522;2023-03-12T08:42:44;26.30;;;4.00;;
68910;SDS011;55953;51.650;-0.522;2023-03-12T08:47:42;26.50;;;4.20;;
68910;SDS011;55953;51.650;-0.522;2023-03-12T08:50:13;24.30;;;4.00;;
68910;SDS011;55953;51.650;-0.522;2023-03-12T08:52:43;25.80;;;3.70;;
68910;SDS011;55953;51.650;-0.522;2023-03-12T08:55:11;25.10;;;4.80;;
68910;SDS011;55953;51.650;-0.522;2023-03-12T08:57:39;23.50;;;3.90;;
68910;SDS011;55953;51.650;-0.522;2023-03-12T09:00:08;16.40;;;3.20;;
68910;SDS011;55953;51.650;-0.522;2023-03-12T09:02:45;23.70;;;3.30;;
68910;SDS011;55953;51.650;-0.522;2023-03-12T09:05:13;20.50;;;3.60;;
68910;SDS011;55953;51.650;-0.522;2023-03-12T09:07:41;21.50;;;3.60;;
68910;SDS011;55953;51.650;-0.522;2023-03-12T09:10:10;22.90;;;3.90;;
68910;SDS011;55953;51.650;-0.522;2023-03-12T09:12:38;23.90;;;3.80;;
68910;SDS011;55953;51.650;-0.522;2023-03-12T09:15:06;22.50;;;3.90;;
68910;SDS011;55953;51.650;-0.522;2023-03-12T09:17:36;21.40;;;3.40;;
68910;SDS011;55953;51.650;-0.522;2023-03-12T09:20:06;22.60;;;4.00;;
68910;SDS011;55953;51.650;-0.522;2023-03-12T09:22:35;16.80;;;3.00;;
68910;SDS011;55953;51.650;-0.522;2023-03-12T09:25:05;20.80;;;2.90;;
68910;SDS011;55953;51.650;-0.522;2023-03-12T09:27:39;18.00;;;3.30;;
68910;SDS011;55953;51.650;-0.522;2023-03-12T09:30:13;19.30;;;3.40;;
68910;SDS011;55953;51.650;-0.522;2023-03-12T09:32:44;20.30;;;3.70;;
68910;SDS011;55953;51.650;-0.522;2023-03-12T09:35:14;18.50;;;2.80;;
68910;SDS011;55953;51.650;-0.522;2023-03-12T09:37:42;23.70;;;3.80;;
68910;SDS011;55953;51.650;-0.522;2023-03-12T09:40:23;21.40;;;3.30;;
68910;SDS011;55953;51.650;-0.522;2023-03-12T09:43:08;20.10;;;3.30;;
68910;SDS011;55953;51.650;-0.522;2023-03-12T09:45:44;18.90;;;3.00;;
68910;SDS011;55953;51.650;-0.522;2023-03-12T09:48:34;20.20;;;3.30;;
68910;SDS011;55953;51.650;-0.522;2023-03-12T09:51:30;18.70;;;2.80;;
68910;SDS011;55953;51.650;-0.522;2023-03-12T09:57:24;16.40;;;2.90;;
68910;SDS011;55953;51.650;-0.522;2023-03-12T09:59:53;15.90;;;3.00;;
68910;SDS011;55953;51.650;-0.522;2023-03-12T10:21:02;18.20;;;2.90;;
68910;SDS011;55953;51.650;-0.522;2023-03-12T10:26:45;15.80;;;3.50;;
68910;SDS011;55953;51.650;-0.522;2023-03-12T10:29:25;19.20;;;3.20;;
68910;SDS011;55953;51.650;-0.522;2023-03-12T10:32:06;16.50;;;2.80;;
68910;SDS011;55953;51.650;-0.522;2023-03-12T10:34:59;23.20;;;3.90;;
68910;SDS011;55953;51.650;-0.522;2023-03-12T10:40:36;20.30;;;3.40;;
68910;SDS011;55953;51.650;-0.522;2023-03-12T10:43:06;16.90;;;4.00;;
68910;SDS011;55953;51.650;-0.522;2023-03-12T10:48:32;19.50;;;2.80;;
68910;SDS011;55953;51.650;-0.522;2023-03-12T10:51:05;17.40;;;3.60;;
68910;SDS011;55953;51.650;-0.522;2023-03-12T10:53:39;18.40;;;3.40;;
68910;SDS011;55953;51.650;-0.522;2023-03-12T10:56:14;23.60;;;3.80;;
68910;SDS011;55953;51.650;-0.522;2023-03-12T10:58:49;17.50;;;3.20;;
68910;SDS011;55953;51.650;-0.522;2023-03-12T11:01:23;17.20;;;3.10;;
68910;SDS011;55953;51.650;-0.522;2023-03-12T11:04:15;20.00;;;3.20;;
68910;SDS011;55953;51.650;-0.522;2023-03-12T11:09:30;22.20;;;3.50;;
68910;SDS011;55953;51.650;-0.522;2023-03-12T11:11:58;16.00;;;3.10;;
68910;SDS011;55953;51.650;-0.522;2023-03-12T11:14:28;22.00;;;3.90;;
68910;SDS011;55953;51.650;-0.522;2023-03-12T11:17:20;19.60;;;3.00;;
68910;SDS011;55953;51.650;-0.522;2023-03-12T11:19:51;19.80;;;3.60;;
68910;SDS011;55953;51.650;-0.522;2023-03-12T11:22:33;22.70;;;3.70;;
68910;SDS011;55953;51.650;-0.522;2023-03-12T11:25:06;19.70;;;3.20;;
68910;SDS011;55953;51.650;-0.522;2023-03-12T11:27:52;22.00;;;3.30;;
68910;SDS011;55953;51.650;-0.522;2023-03-12T11:30:30;21.30;;;3.50;;
68910;SDS011;55953;51.650;-0.522;2023-03-12T11:33:01;20.00;;;3.30;;
68910;SDS011;55953;51.650;-0.522;2023-03-12T11:41:07;21.10;;;3.50;;
68910;SDS011;55953;51.650;-0.522;2023-03-12T11:44:01;20.00;;;4.00;;
68910;SDS011;55953;51.650;-0.522;2023-03-12T11:46:58;19.20;;;3.70;;
68910;SDS011;55953;51.650;-0.522;2023-03-12T11:55:52;19.90;;;3.20;;
68910;SDS011;55953;51.650;-0.522;2023-03-12T12:02:58;24.10;;;3.70;;
68910;SDS011;55953;51.650;-0.522;2023-03-12T12:11:44;16.80;;;3.70;;
68910;SDS011;55953;51.650;-0.522;2023-03-12T12:14:24;20.30;;;3.50;;
68910;SDS011;55953;51.650;-0.522;2023-03-12T12:20:02;16.90;;;3.40;;
68910;SDS011;55953;51.650;-0.522;2023-03-12T12:28:48;18.90;;;3.50;;
68910;SDS011;55953;51.650;-0.522;2023-03-12T12:40:50;16.50;;;2.90;;
68910;SDS011;55953;51.650;-0.522;2023-03-12T12:46:19;18.20;;;4.10;;
68910;SDS011;55953;51.650;-0.522;2023-03-12T12:49:14;20.60;;;3.90;;
68910;SDS011;55953;51.650;-0.522;2023-03-12T12:51:47;19.70;;;3.90;;
68910;SDS011;55953;51.650;-0.522;2023-03-12T12:57:04;17.60;;;3.00;;
68910;SDS011;55953;51.650;-0.522;2023-03-12T13:02:51;27.80;;;11.20;;
68910;SDS011;55953;51.650;-0.522;2023-03-12T13:08:03;24.30;;;9.40;;
68910;SDS011;55953;51.650;-0.522;2023-03-12T13:13:09;16.90;;;3.60;;
68910;SDS011;55953;51.650;-0.522;2023-03-12T13:15:45;14.70;;;3.50;;
68910;SDS011;55953;51.650;-0.522;2023-03-12T13:18:22;16.00;;;2.80;;
68910;SDS011;55953;51.650;-0.522;2023-03-12T13:23:35;15.10;;;2.40;;
68910;SDS011;55953;51.650;-0.522;2023-03-12T13:31:56;14.50;;;2.70;;
68910;SDS011;55953;51.650;-0.522;2023-03-12T13:34:41;11.40;;;2.80;;
68910;SDS011;55953;51.650;-0.522;2023-03-12T13:48:15;14.60;;;4.50;;
68910;SDS011;55953;51.650;-0.522;2023-03-12T13:50:54;17.20;;;3.10;;
68910;SDS011;55953;51.650;-0.522;2023-03-12T13:53:35;18.90;;;2.90;;
68910;SDS011;55953;51.650;-0.522;2023-03-12T13:56:14;16.70;;;3.20;;
68910;SDS011;55953;51.650;-0.522;2023-03-12T14:01:46;15.30;;;2.50;;
68910;SDS011;55953;51.650;-0.522;2023-03-12T14:04:19;14.30;;;2.40;;
68910;SDS011;55953;51.650;-0.522;2023-03-12T14:13:24;13.50;;;3.00;;
68910;SDS011;55953;51.650;-0.522;2023-03-12T14:18:21;12.90;;;2.80;;
68910;SDS011;55953;51.650;-0.522;2023-03-12T14:21:00;9.90;;;2.90;;
68910;SDS011;55953;51.650;-0.522;2023-03-12T14:23:37;10.80;;;2.50;;
68910;SDS011;55953;51.650;-0.522;2023-03-12T14:26:40;20.70;;;8.70;;
68910;SDS011;55953;51.650;-0.522;2023-03-12T14:32:16;11.90;;;2.30;;
68910;SDS011;55953;51.650;-0.522;2023-03-12T14:34:56;11.40;;;2.00;;
68910;SDS011;55953;51.650;-0.522;2023-03-12T14:37:40;10.60;;;2.00;;
68910;SDS011;55953;51.650;-0.522;2023-03-12T14:40:21;10.20;;;1.80;;
68910;SDS011;55953;51.650;-0.522;2023-03-12T14:42:50;11.20;;;1.90;;
68910;SDS011;55953;51.650;-0.522;2023-03-12T14:45:21;8.30;;;1.70;;
68910;SDS011;55953;51.650;-0.522;2023-03-12T14:47:57;10.60;;;1.90;;
68910;SDS011;55953;51.650;-0.522;2023-03-12T14:50:35;9.30;;;2.00;;
68910;SDS011;55953;51.650;-0.522;2023-03-12T14:53:28;9.00;;;1.70;;
68910;SDS011;55953;51.650;-0.522;2023-03-12T14:56:22;8.80;;;1.60;;
68910;SDS011;55953;51.650;-0.522;2023-03-12T14:58:51;6.70;;;1.60;;
68910;SDS011;55953;51.650;-0.522;2023-03-12T15:01:22;7.60;;;1.70;;
68910;SDS011;55953;51.650;-0.522;2023-03-12T15:03:56;9.10;;;2.00;;
68910;SDS011;55953;51.650;-0.522;2023-03-12T15:06:43;9.20;;;1.60;;
68910;SDS011;55953;51.650;-0.522;2023-03-12T15:09:17;11.20;;;2.50;;
68910;SDS011;55953;51.650;-0.522;2023-03-12T15:12:16;13.80;;;2.20;;
68910;SDS011;55953;51.650;-0.522;2023-03-12T15:14:45;9.90;;;2.20;;
68910;SDS011;55953;51.650;-0.522;2023-03-12T15:17:18;14.40;;;2.30;;
68910;SDS011;55953;51.650;-0.522;2023-03-12T15:19:48;12.20;;;2.60;;
68910;SDS011;55953;51.650;-0.522;2023-03-12T15:22:19;13.20;;;2.60;;
68910;SDS011;55953;51.650;-0.522;2023-03-12T15:24:52;14.20;;;2.20;;
68910;SDS011;55953;51.650;-0.522;2023-03-12T15:29:48;10.80;;;3.40;;
68910;SDS011;55953;51.650;-0.522;2023-03-12T15:32:18;15.90;;;2.30;;
68910;SDS011;55953;51.650;-0.522;2023-03-12T15:34:53;10.80;;;2.00;;
68910;SDS011;55953;51.650;-0.522;2023-03-12T15:40:22;9.50;;;2.30;;
68910;SDS011;55953;51.650;-0.522;2023-03-12T15:42:53;12.80;;;3.00;;
68910;SDS011;55953;51.650;-0.522;2023-03-12T15:45:35;10.60;;;3.60;;
68910;SDS011;55953;51.650;-0.522;2023-03-12T15:50:53;7.70;;;1.60;;
68910;SDS011;55953;51.650;-0.522;2023-03-12T15:58:38;7.20;;;1.30;;
68910;SDS011;55953;51.650;-0.522;2023-03-12T16:01:15;8.80;;;1.20;;
68910;SDS011;55953;51.650;-0.522;2023-03-12T16:03:45;7.20;;;1.30;;
68910;SDS011;55953;51.650;-0.522;2023-03-12T16:06:18;6.30;;;1.10;;
68910;SDS011;55953;51.650;-0.522;2023-03-12T16:08:55;5.90;;;1.30;;
68910;SDS011;55953;51.650;-0.522;2023-03-12T16:11:28;4.70;;;1.10;;
68910;SDS011;55953;51.650;-0.522;2023-03-12T16:14:07;5.50;;;1.00;;
68910;SDS011;55953;51.650;-0.522;2023-03-12T16:16:39;5.00;;;1.30;;
68910;SDS011;55953;51.650;-0.522;2023-03-12T16:19:19;4.70;;;1.00;;
68910;SDS011;55953;51.650;-0.522;2023-03-12T16:21:49;5.90;;;1.20;;
68910;SDS011;55953;51.650;-0.522;2023-03-12T16:24:17;7.10;;;1.20;;
68910;SDS011;55953;51.650;-0.522;2023-03-12T16:29:20;3.50;;;0.70;;
68910;SDS011;55953;51.650;-0.522;2023-03-12T16:31:54;3.90;;;0.80;;
68910;SDS011;55953;51.650;-0.522;2023-03-12T16:34:23;4.00;;;0.80;;
68910;SDS011;55953;51.650;-0.522;2023-03-12T16:36:51;3.00;;;0.90;;
68910;SDS011;55953;51.650;-0.522;2023-03-12T16:39:19;5.30;;;1.40;;
68910;SDS011;55953;51.650;-0.522;2023-03-12T16:41:47;5.10;;;1.20;;
68910;SDS011;55953;51.650;-0.522;2023-03-12T16:44:18;3.40;;;0.80;;
68910;SDS011;55953;51.650;-0.522;2023-03-12T16:46:48;5.90;;;1.50;;
68910;SDS011;55953;51.650;-0.522;2023-03-12T16:49:16;4.90;;;1.30;;
68910;SDS011;55953;51.650;-0.522;2023-03-12T16:51:46;1.90;;;1.20;;
68910;SDS011;55953;51.650;-0.522;2023-03-12T16:54:14;3.40;;;0.90;;
68910;SDS011;55953;51.650;-0.522;2023-03-12T16:56:45;7.60;;;1.30;;
68910;SDS011;55953;51.650;-0.522;2023-03-12T16:59:26;6.30;;;1.30;;
68910;SDS011;55953;51.650;-0.522;2023-03-12T17:01:58;5.30;;;1.30;;
68910;SDS011;55953;51.650;-0.522;2023-03-12T17:04:26;4.80;;;1.60;;
68910;SDS011;55953;51.650;-0.522;2023-03-12T17:06:54;7.90;;;1.70;;
68910;SDS011;55953;51.650;-0.522;2023-03-12T17:09:22;4.50;;;1.40;;
68910;SDS011;55953;51.650;-0.522;2023-03-12T17:11:51;5.70;;;1.50;;
68910;SDS011;55953;51.650;-0.522;2023-03-12T17:14:20;6.90;;;1.50;;
68910;SDS011;55953;51.650;-0.522;2023-03-12T17:16:49;9.00;;;2.50;;
68910;SDS011;55953;51.650;-0.522;2023-03-12T17:19:17;8.60;;;2.30;;
68910;SDS011;55953;51.650;-0.522;2023-03-12T17:21:46;6.40;;;1.50;;
68910;SDS011;55953;51.650;-0.522;2023-03-12T17:24:15;6.40;;;2.00;;
68910;SDS011;55953;51.650;-0.522;2023-03-12T17:26:44;7.30;;;2.10;;
68910;SDS011;55953;51.650;-0.522;2023-03-12T17:29:12;7.80;;;1.80;;
68910;SDS011;55953;51.650;-0.522;2023-03-12T17:31:40;10.40;;;2.10;;
68910;SDS011;55953;51.650;-0.522;2023-03-12T17:34:08;9.80;;;2.50;;